createdAt,value
2023-02-08T01:46:01.692Z,20.80
2023-02-08T01:48:33.397Z,22.00
2023-02-08T01:51:06.580Z,23.60
2023-02-08T01:53:35.550Z,22.92
2023-02-08T01:56:08.012Z,22.30
2023-02-08T01:58:39.792Z,23.02
2023-02-08T02:01:07.539Z,22.50
2023-02-08T02:03:35.280Z,23.25
2023-02-08T02:06:08.838Z,23.60
2023-02-08T02:08:40.453Z,22.50
2023-02-08T02:11:07.914Z,22.02
2023-02-08T02:13:36.997Z,22.75
2023-02-08T02:16:05.029Z,24.15
2023-02-08T02:18:33.079Z,24.35
2023-02-08T02:21:27.627Z,23.73
2023-02-08T02:24:23.490Z,24.50
2023-02-08T07:36:08.932Z,6.78
2023-02-08T07:38:37.532Z,6.20
2023-02-08T07:41:09.618Z,5.87
2023-02-08T07:46:07.748Z,5.65
2023-02-08T07:48:35.521Z,5.62
2023-02-08T07:51:03.305Z,6.28
2023-02-08T07:53:32.079Z,5.87
2023-02-08T07:56:00.108Z,6.05
2023-02-08T07:58:27.609Z,5.68
2023-02-08T08:00:55.410Z,6.85
2023-02-08T08:03:23.133Z,5.57
2023-02-08T08:05:53.110Z,6.12
2023-02-08T08:10:49.625Z,7.97
2023-02-08T08:13:17.056Z,5.82
2023-02-08T08:15:44.578Z,6.12
2023-02-08T09:22:07.612Z,8.55
2023-02-08T09:24:35.432Z,9.02
2023-02-08T09:27:03.512Z,8.80
2023-02-08T09:29:32.844Z,8.93
2023-02-08T09:32:00.550Z,8.00
2023-02-08T09:34:28.352Z,8.23
2023-02-08T09:36:55.792Z,7.28
2023-02-08T09:39:25.601Z,8.07
2023-02-08T09:42:18.079Z,6.70
2023-02-08T09:45:00.789Z,5.40
2023-02-08T09:47:36.498Z,5.57
2023-02-08T09:50:14.005Z,4.95
2023-02-08T09:53:02.175Z,5.55
2023-02-08T09:55:29.873Z,6.15
2023-02-08T10:02:58.363Z,5.57
2023-02-08T10:05:26.996Z,6.15
2023-02-08T10:07:56.306Z,5.10
2023-02-08T10:10:50.346Z,5.35
2023-02-08T10:13:41.049Z,5.40
2023-02-08T10:16:47.005Z,4.75
2023-02-08T10:19:38.576Z,5.35
2023-02-08T10:35:13.946Z,5.80
2023-02-08T10:50:37.738Z,5.90
2023-02-08T10:53:05.733Z,6.22
2023-02-08T10:55:36.563Z,5.80
2023-02-08T10:58:05.532Z,6.62
2023-02-08T11:00:39.923Z,6.78
2023-02-08T11:03:18.878Z,6.25
2023-02-08T11:05:46.667Z,7.32
2023-02-08T11:08:19.472Z,7.70
2023-02-08T11:10:59.347Z,6.90
2023-02-08T11:13:42.482Z,5.93
2023-02-08T11:16:12.734Z,6.65
2023-02-08T11:18:58.546Z,7.70
2023-02-08T11:21:29.777Z,7.22
2023-02-08T11:23:58.651Z,6.68
2023-02-08T11:26:32.669Z,6.57
2023-02-08T11:29:26.465Z,6.37
2023-02-08T11:32:15.511Z,7.22
2023-02-08T11:34:42.884Z,6.68
2023-02-08T11:37:16.678Z,7.10
2023-02-08T11:39:49.791Z,6.22
2023-02-08T11:42:28.243Z,7.28
2023-02-08T11:44:56.967Z,9.15
2023-02-08T11:47:26.673Z,7.65
2023-02-08T11:50:05.865Z,7.95
2023-02-08T11:52:36.664Z,5.78
2023-02-08T11:55:26.406Z,5.87
2023-02-08T11:58:13.450Z,5.57
2023-02-08T12:00:41.478Z,6.28
2023-02-08T12:03:19.633Z,5.60
2023-02-08T12:06:31.825Z,6.85
2023-02-08T12:09:27.582Z,5.55
2023-02-08T12:12:08.588Z,5.28
2023-02-08T12:14:54.926Z,5.53
2023-02-08T12:17:34.131Z,5.82
2023-02-08T12:20:16.885Z,6.20
2023-02-08T12:23:12.870Z,6.22
2023-02-08T12:26:16.156Z,7.18
2023-02-08T12:29:21.258Z,6.00
2023-02-08T12:32:26.433Z,6.00
2023-02-08T12:35:33.119Z,5.80
2023-02-08T12:38:35.045Z,5.45
2023-02-08T12:41:30.421Z,6.53
2023-02-08T12:44:10.262Z,5.37
2023-02-08T12:47:04.566Z,5.10
2023-02-08T12:49:35.829Z,5.50
2023-02-08T12:52:21.902Z,5.90
2023-02-08T12:55:25.916Z,6.43
2023-02-08T12:57:57.976Z,4.82
2023-02-08T13:00:28.530Z,5.40
2023-02-08T13:03:29.719Z,6.80
2023-02-08T13:06:02.881Z,7.18
2023-02-08T13:08:41.676Z,6.80
2023-02-08T13:11:31.222Z,6.70
2023-02-08T13:14:13.567Z,7.15
2023-02-08T15:48:13.672Z,10.77
2023-02-08T15:58:16.654Z,7.30
2023-02-08T16:00:46.018Z,11.77
2023-02-08T16:03:23.863Z,8.07
2023-02-08T16:05:54.188Z,9.45
2023-02-08T16:08:27.256Z,9.02
2023-02-08T16:11:04.213Z,7.28
2023-02-08T16:13:34.769Z,6.70
2023-02-08T16:16:20.844Z,7.40
2023-02-08T16:18:58.477Z,7.78
2023-02-08T16:34:07.751Z,8.73
2023-02-08T16:36:39.640Z,8.48
2023-02-08T16:39:19.512Z,9.30
2023-02-08T16:42:20.647Z,9.02
2023-02-08T16:45:02.049Z,14.45
2023-02-08T16:47:45.003Z,12.73
2023-02-08T16:50:15.926Z,12.90
2023-02-08T16:52:44.337Z,28.02
2023-02-08T16:55:26.569Z,25.75
2023-02-08T16:57:56.587Z,21.20
2023-02-08T17:12:51.335Z,9.43
2023-02-08T22:59:48.181Z,30.75
